Grangeburg, Alabama
Current Conditions -  °F | °C
As of 11:53 AM on Tuesday 21 Oct 2014 (Local Time) from KMAI Reporting Station
Clear Clear  
Wind Chill: 76°   Ceiling: Unl
Heat Index: 76°   Visibility: 10mi
Dew Point: 53°   Wind: 9mph
Humidity: 45%   Direction: 10°N
Pressure: 30.01"   Gusts: NA
Location:  31.0771°N, 85.1158°W
Report Text: KMAI 211653Z AUTO 01008KT 10SM CLR 24/12 A3001 RMK AO2 SLP162 T02440117
Loading
Personal Weather Stations






























Interactive Weather Map
Tropical Storm Tracking
New forecast layout! Learn more

10-Day Weather Forecast

Advertisements
Track Severe Weather on mobile